Time;durP1;ratioP1;P1;durP2;ratioP2;P2;SDS_P1;SDS_P2;PMS_P1;PMS_P2;Temp;Humidity;BMP_temperature;BMP_pressure;BME280_temperature;BME280_humidity;BME280_pressure;Samples;Min_cycle;Max_cycle;Signal;HPM_P1;HPM_P2
2021/04/23 00:00:43;;;;;;;21.65;14.18;;;;;;;10.51;78.48;100133.83;1709036;84;21277;-60
2021/04/23 00:03:34;;;;;;;21.52;12.47;;;;;;;10.45;78.60;100134.96;1709038;84;21170;-61
2021/04/23 00:06:16;;;;;;;22.58;12.98;;;;;;;10.44;78.88;100141.48;1709051;84;21186;-60
2021/04/23 00:08:46;;;;;;;26.00;13.55;;;;;;;10.45;79.06;100137.70;1686811;83;21327;-61
2021/04/23 00:11:16;;;;;;;22.02;14.05;;;;;;;10.46;79.14;100113.38;1668550;84;21988;-60
2021/04/23 00:13:44;;;;;;;22.82;14.58;;;;;;;10.46;79.32;100110.63;1668584;86;21416;-60
2021/04/23 00:16:11;;;;;;;22.80;13.85;;;;;;;10.50;79.56;100107.48;1668543;84;21219;-60
2021/04/23 00:18:39;;;;;;;20.95;12.70;;;;;;;10.53;79.65;100118.03;1668404;84;21177;-60
2021/04/23 00:21:07;;;;;;;22.85;12.37;;;;;;;10.52;79.41;100121.30;1668502;86;21466;-60
2021/04/23 00:23:35;;;;;;;24.37;13.38;;;;;;;10.48;79.38;100122.23;1668453;84;21230;-60
2021/04/23 00:26:03;;;;;;;22.93;14.10;;;;;;;10.48;79.56;100125.49;1668533;84;21193;-59
2021/04/23 00:28:33;;;;;;;20.30;13.05;;;;;;;10.51;79.68;100133.83;1668439;86;21196;-60
2021/04/23 00:31:02;;;;;;;21.48;13.50;;;;;;;10.53;79.79;100126.25;1668643;86;21468;-61
2021/04/23 00:33:30;;;;;;;20.40;11.80;;;;;;;10.52;79.62;100124.56;1668541;86;21193;-60
2021/04/23 00:35:58;;;;;;;23.45;13.35;;;;;;;10.51;79.53;100122.87;1668572;84;21290;-60
2021/04/23 00:38:26;;;;;;;22.13;13.50;;;;;;;10.51;79.59;100132.45;1668505;85;21201;-59
2021/04/23 00:41:13;;;;;;;24.05;15.53;;;;;;;10.48;79.59;100136.45;1688316;84;21167;-61
2021/04/23 00:43:56;;;;;;;29.80;17.30;;;;;;;10.46;79.71;100140.76;1697644;84;21877;-60
2021/04/23 00:46:17;;;;;;;24.10;15.08;;;;;;;10.44;79.89;100153.81;1697379;84;21195;-60
2021/04/23 00:48:46;;;;;;;30.32;18.62;;;;;;;10.44;80.02;100168.03;1697665;84;21148;-61
2021/04/23 00:51:20;;;;;;;37.65;20.65;;;;;;;10.46;80.11;100177.73;1687423;83;21226;-60
2021/04/23 00:53:50;;;;;;;35.08;22.13;;;;;;;10.49;80.14;100179.23;1668742;86;21492;-60
2021/04/23 00:56:21;;;;;;;37.20;23.25;;;;;;;10.50;80.08;100181.44;1668827;86;21301;-60
2021/04/23 00:58:49;;;;;;;38.85;22.60;;;;;;;10.50;80.06;100182.29;1668253;84;21237;-60
2021/04/23 01:01:29;;;;;;;34.53;20.37;;;;;;;10.51;79.94;100176.28;1666553;85;21178;-60
2021/04/23 01:03:56;;;;;;;39.95;22.90;;;;;;;10.52;79.75;100176.61;1666579;86;21481;-59
2021/04/23 01:06:27;;;;;;;37.63;22.20;;;;;;;10.55;79.57;100166.61;1666510;84;21447;-60
2021/04/23 01:08:57;;;;;;;41.30;25.68;;;;;;;10.59;79.39;100167.89;1666682;84;21174;-60
2021/04/23 01:11:26;;;;;;;36.17;23.55;;;;;;;10.60;79.23;100160.84;1666616;85;21353;-60
2021/04/23 01:13:54;;;;;;;39.45;24.63;;;;;;;10.62;79.05;100161.48;1666686;84;21458;-59
2021/04/23 01:16:23;;;;;;;36.60;22.67;;;;;;;10.64;78.83;100162.65;1666484;86;21305;-60
2021/04/23 01:18:52;;;;;;;41.75;25.43;;;;;;;10.64;78.66;100158.54;1666664;86;21193;-61
2021/04/23 01:21:27;;;;;;;33.85;22.25;;;;;;;10.66;78.57;100161.92;1666578;84;21242;-60
2021/04/23 01:23:56;;;;;;;37.98;25.25;;;;;;;10.68;78.45;100159.82;1666538;86;21488;-60
2021/04/23 01:26:28;;;;;;;26.27;15.88;;;;;;;10.65;78.37;100154.75;1666455;85;21218;-60
2021/04/23 01:28:55;;;;;;;21.30;13.22;;;;;;;10.63;78.36;100156.84;1666606;85;21226;-60
2021/04/23 01:31:27;;;;;;;17.35;10.43;;;;;;;10.61;78.24;100158.95;1666626;84;21931;-60
2021/04/23 01:34:00;;;;;;;16.62;10.72;;;;;;;10.59;77.82;100150.09;1680735;84;21205;-60
2021/04/23 01:36:28;;;;;;;15.88;10.10;;;;;;;10.57;77.57;100160.41;1694584;84;21263;-60
2021/04/23 01:38:55;;;;;;;13.62;9.15;;;;;;;10.56;77.45;100154.60;1694797;84;21221;-60
2021/04/23 01:41:23;;;;;;;13.43;8.90;;;;;;;10.55;77.32;100159.23;1638875;87;21425;-61
2021/04/23 01:43:51;;;;;;;13.30;8.63;;;;;;;10.54;77.07;100158.07;1638896;87;21360;-60
2021/04/23 01:46:18;;;;;;;14.93;8.65;;;;;;;10.55;76.97;100158.39;1637513;87;21480;-63
2021/04/23 01:48:45;;;;;;;12.25;7.62;;;;;;;10.55;76.87;100157.87;1638864;87;21452;-61
2021/04/23 01:51:14;;;;;;;13.68;8.43;;;;;;;10.57;76.83;100157.14;1666039;86;21174;-60
2021/04/23 01:53:42;;;;;;;12.60;8.48;;;;;;;10.60;76.65;100164.11;1665946;86;21190;-60
2021/04/23 01:56:09;;;;;;;11.30;7.92;;;;;;;10.59;76.61;100157.78;1665996;86;21255;-59
2021/04/23 01:58:38;;;;;;;12.23;8.15;;;;;;;10.58;76.53;100162.09;1665973;86;21452;-60
2021/04/23 02:01:06;;;;;;;12.85;8.53;;;;;;;10.55;76.55;100163.88;1665968;86;21404;-60
2021/04/23 02:03:35;;;;;;;11.90;8.83;;;;;;;10.57;76.60;100163.14;1665902;86;21170;-61
2021/04/23 02:06:03;;;;;;;13.13;8.68;;;;;;;10.58;76.70;100173.05;1666099;86;21169;-60
2021/04/23 02:08:30;;;;;;;11.53;8.63;;;;;;;10.58;76.68;100187.59;1665898;86;21590;-60
2021/04/23 02:11:06;;;;;;;14.28;9.35;;;;;;;10.58;76.65;100184.02;1665887;85;21461;-60
2021/04/23 02:13:35;;;;;;;12.33;8.35;;;;;;;10.55;76.61;100183.89;1666041;85;21248;-60
2021/04/23 02:16:03;;;;;;;12.68;8.68;;;;;;;10.54;76.76;100189.58;1657062;86;21191;-60
2021/04/23 02:18:30;;;;;;;10.70;7.58;;;;;;;10.50;76.78;100193.25;1638677;87;21590;-61
2021/04/23 02:20:58;;;;;;;9.00;6.17;;;;;;;10.47;76.57;100215.56;1638807;87;21455;-61
2021/04/23 02:23:25;;;;;;;7.75;5.30;;;;;;;10.31;74.03;100218.59;1638791;87;22174;-61
2021/04/23 02:25:53;;;;;;;9.05;5.00;;;;;;;10.04;71.84;100224.36;1625084;87;21546;-60
2021/04/23 02:28:21;;;;;;;6.58;4.53;;;;;;;9.78;71.14;100226.36;1625047;87;21453;-60
2021/04/23 02:30:52;;;;;;;6.97;4.00;;;;;;;9.59;70.77;100228.36;1625066;88;21198;-61
2021/04/23 02:33:21;;;;;;;6.05;3.90;;;;;;;9.36;69.82;100223.08;1622063;88;21271;-60
2021/04/23 02:35:50;;;;;;;6.67;4.35;;;;;;;9.15;70.20;100219.80;1625100;88;21212;-61
2021/04/23 02:38:18;;;;;;;6.40;3.75;;;;;;;9.04;70.73;100233.94;1625312;88;21247;-61
2021/04/23 02:40:46;;;;;;;4.50;3.40;;;;;;;9.00;70.30;100253.13;1625284;88;21159;-60
2021/04/23 02:43:20;;;;;;;6.28;3.50;;;;;;;8.89;69.83;100248.99;1625310;87;21350;-59
2021/04/23 02:45:49;;;;;;;6.90;3.90;;;;;;;8.78;69.94;100265.86;1625459;87;21345;-59
2021/04/23 02:48:18;;;;;;;8.50;4.20;;;;;;;8.64;70.05;100265.36;1625218;88;21866;-61
2021/04/23 02:50:48;;;;;;;6.08;3.62;;;;;;;8.53;70.48;100261.21;1625206;88;21174;-60
2021/04/23 02:53:16;;;;;;;9.10;4.17;;;;;;;8.49;70.83;100274.91;1625209;88;21455;-60
2021/04/23 02:55:43;;;;;;;8.68;3.60;;;;;;;8.43;70.48;100272.38;1625233;88;21230;-60
2021/04/23 02:58:16;;;;;;;7.15;4.03;;;;;;;8.36;70.84;100276.05;1625023;87;21884;-61
2021/04/23 03:00:51;;;;;;;6.78;4.05;;;;;;;8.30;70.64;100306.27;1647845;86;22018;-61
2021/04/23 03:03:19;;;;;;;9.53;3.92;;;;;;;8.22;70.37;100285.36;1669382;86;21300;-62
2021/04/23 03:05:48;;;;;;;7.42;3.92;;;;;;;8.22;70.43;100294.06;1669360;84;21177;-61
2021/04/23 03:08:17;;;;;;;6.87;3.58;;;;;;;8.24;70.56;100294.20;1669388;84;21417;-60
2021/04/23 03:10:51;;;;;;;7.62;4.20;;;;;;;8.26;69.22;100304.94;1667851;84;21221;-61
2021/04/23 03:13:22;;;;;;;6.35;3.90;;;;;;;8.18;69.37;100311.84;1667877;84;21425;-61
2021/04/23 03:15:49;;;;;;;8.18;4.20;;;;;;;8.12;69.44;100322.97;1667857;84;21388;-60
2021/04/23 03:18:20;;;;;;;8.75;4.50;;;;;;;8.11;69.86;100319.91;1668063;84;21189;-60
2021/04/23 03:20:49;;;;;;;9.68;4.95;;;;;;;8.08;69.87;100326.25;1667896;86;21427;-60
2021/04/23 03:23:16;;;;;;;7.40;3.58;;;;;;;8.02;69.88;100334.66;1667925;85;21416;-60
2021/04/23 03:25:44;;;;;;;8.55;3.47;;;;;;;7.88;69.67;100343.12;1667868;84;21451;-60
2021/04/23 03:28:11;;;;;;;8.50;3.95;;;;;;;7.78;69.68;100339.75;1667908;84;21288;-60
2021/04/23 03:30:41;;;;;;;7.05;3.42;;;;;;;7.69;69.74;100344.93;1667744;85;21496;-60
2021/04/23 03:33:09;;;;;;;5.10;3.25;;;;;;;7.64;69.72;100341.38;1667832;84;21154;-60
2021/04/23 03:35:37;;;;;;;6.45;3.00;;;;;;;7.61;69.53;100351.28;1667759;85;21182;-60
2021/04/23 03:38:08;;;;;;;7.37;2.92;;;;;;;7.55;69.07;100355.24;1667877;84;21412;-60
2021/04/23 03:40:35;;;;;;;6.15;3.10;;;;;;;7.49;69.15;100346.41;1667784;84;21296;-60
2021/04/23 03:43:02;;;;;;;9.40;4.10;;;;;;;7.45;69.53;100364.16;1658282;86;21444;-60
2021/04/23 03:45:30;;;;;;;5.10;3.05;;;;;;;7.42;69.46;100356.34;1657739;86;21221;-60
2021/04/23 03:47:57;;;;;;;6.75;3.12;;;;;;;7.37;69.69;100357.39;1657679;86;21202;-60
2021/04/23 03:50:28;;;;;;;6.42;2.90;;;;;;;7.34;69.78;100357.23;1657664;85;21393;-60
2021/04/23 03:52:56;;;;;;;6.47;3.05;;;;;;;7.30;70.02;100364.06;1657613;86;21338;-60
2021/04/23 03:55:31;;;;;;;5.30;3.20;;;;;;;7.25;69.99;100362.38;1657797;86;21441;-60
2021/04/23 03:57:59;;;;;;;5.67;3.10;;;;;;;7.20;70.36;100372.45;1657655;86;21205;-60
2021/04/23 04:00:41;;;;;;;6.05;3.27;;;;;;;7.20;70.32;100377.91;1660833;85;21242;-60
2021/04/23 04:03:08;;;;;;;6.53;2.87;;;;;;;7.13;70.61;100367.34;1665526;86;22014;-60
2021/04/23 04:05:36;;;;;;;9.28;3.45;;;;;;;7.14;71.06;100373.13;1665508;86;21428;-60
2021/04/23 04:08:05;;;;;;;4.97;2.50;;;;;;;7.19;71.39;100372.63;1665588;86;21153;-61
2021/04/23 04:10:34;;;;;;;8.18;3.20;;;;;;;7.24;71.72;100380.61;1665675;86;21180;-61
2021/04/23 04:13:01;;;;;;;5.58;3.02;;;;;;;7.28;71.87;100385.20;1665520;86;21205;-60
2021/04/23 04:15:28;;;;;;;6.40;2.80;;;;;;;7.23;71.81;100385.72;1665424;86;21188;-60
2021/04/23 04:17:56;;;;;;;5.90;2.30;;;;;;;7.22;71.86;100386.75;1665626;86;21419;-60
2021/04/23 04:20:25;;;;;;;8.10;3.00;;;;;;;7.19;72.08;100395.28;1665495;86;21181;-60
2021/04/23 04:22:52;;;;;;;8.50;3.05;;;;;;;7.12;72.29;100383.86;1665629;86;21496;-62
2021/04/23 04:25:28;;;;;;;9.73;3.33;;;;;;;7.09;72.67;100386.94;1687375;84;21217;-60
2021/04/23 04:27:55;;;;;;;6.22;2.90;;;;;;;7.08;73.30;100383.88;1696427;84;21277;-60
2021/04/23 04:30:24;;;;;;;9.05;3.42;;;;;;;7.08;73.48;100391.54;1696425;84;21312;-61
2021/04/23 04:32:52;;;;;;;6.50;3.20;;;;;;;7.03;73.57;100391.22;1696784;84;21290;-61
2021/04/23 04:35:20;;;;;;;22.73;9.88;;;;;;;6.95;73.76;100389.87;1696311;84;21178;-61
2021/04/23 04:37:47;;;;;;;15.05;6.62;;;;;;;6.95;74.21;100392.61;1696589;84;21473;-62
2021/04/23 04:40:15;;;;;;;10.48;3.47;;;;;;;6.95;74.47;100391.24;1696605;84;21206;-61
2021/04/23 04:42:43;;;;;;;9.68;3.90;;;;;;;6.94;74.66;100395.84;1725818;83;21162;-61
2021/04/23 04:45:15;;;;;;;8.30;3.47;;;;;;;7.02;74.93;100401.77;1725899;83;21157;-61
2021/04/23 04:47:42;;;;;;;6.97;3.22;;;;;;;7.10;75.05;100392.72;1725801;83;21284;-61
2021/04/23 04:50:17;;;;;;;7.58;3.25;;;;;;;7.20;75.23;100392.89;1665612;86;21237;-61
2021/04/23 04:52:44;;;;;;;7.42;3.30;;;;;;;7.26;75.12;100397.64;1725402;83;21162;-60
2021/04/23 04:55:14;;;;;;;8.70;3.60;;;;;;;7.35;75.13;100401.69;1665526;86;21810;-62
2021/04/23 04:57:42;;;;;;;8.85;3.40;;;;;;;7.44;75.09;100403.35;1725783;83;21328;-61
2021/04/23 05:00:12;;;;;;;8.43;3.22;;;;;;;7.54;74.99;100401.25;1665398;86;21233;-61
2021/04/23 05:02:39;;;;;;;6.55;3.52;;;;;;;7.58;74.32;100408.05;1725841;83;21582;-61
2021/04/23 05:05:08;;;;;;;8.03;2.98;;;;;;;7.57;74.29;100409.08;1725696;83;21451;-61
2021/04/23 05:07:36;;;;;;;9.10;2.90;;;;;;;7.56;73.87;100404.66;1714528;83;21201;-60
2021/04/23 05:10:05;;;;;;;6.97;3.10;;;;;;;7.56;74.00;100401.93;1706076;84;21427;-60
2021/04/23 05:12:33;;;;;;;5.97;2.83;;;;;;;7.58;73.23;100406.69;1706033;84;21159;-60
2021/04/23 05:15:00;;;;;;;6.20;3.10;;;;;;;7.56;72.93;100412.83;1706082;84;21446;-61
2021/04/23 05:17:28;;;;;;;5.25;3.05;;;;;;;7.58;73.25;100416.23;1706124;83;21436;-62
2021/04/23 05:19:55;;;;;;;7.90;2.80;;;;;;;7.61;73.18;100415.36;1633306;87;21190;-61
2021/04/23 05:22:23;;;;;;;6.10;2.92;;;;;;;7.67;73.15;100411.07;1703442;84;21146;-61
2021/04/23 05:24:50;;;;;;;8.63;2.60;;;;;;;7.70;72.66;100412.08;1633462;87;21513;-61
2021/04/23 05:27:18;;;;;;;5.72;2.77;;;;;;;7.71;72.54;100397.41;1703354;84;21467;-62
2021/04/23 05:29:45;;;;;;;7.03;3.33;;;;;;;7.74;72.40;100398.42;1633400;87;21431;-61
2021/04/23 05:32:13;;;;;;;4.87;2.92;;;;;;;7.74;71.91;100399.78;1703270;84;21162;-61
2021/04/23 05:34:41;;;;;;;7.05;3.10;;;;;;;7.74;71.90;100398.42;1703120;84;21234;-66
2021/04/23 05:37:09;;;;;;;6.80;2.90;;;;;;;7.77;72.12;100403.52;1703374;84;21191;-65
2021/04/23 05:39:38;;;;;;;6.08;2.80;;;;;;;7.85;71.91;100405.38;1703069;84;21390;-65
2021/04/23 05:42:06;;;;;;;8.70;3.40;;;;;;;7.90;71.62;100405.16;1703162;84;21448;-64
2021/04/23 05:44:33;;;;;;;8.35;3.58;;;;;;;7.93;71.43;100399.34;1702984;83;21712;-66
2021/04/23 05:47:01;;;;;;;6.92;2.83;;;;;;;8.00;71.29;100404.08;1703213;84;21261;-65
2021/04/23 05:49:28;;;;;;;7.53;3.02;;;;;;;8.02;71.22;100406.97;1706375;83;21420;-65
2021/04/23 05:51:56;;;;;;;10.25;3.33;;;;;;;8.06;71.24;100406.09;1665293;86;21158;-65
2021/04/23 05:54:24;;;;;;;5.92;3.40;;;;;;;8.08;70.49;100410.84;1725548;83;21905;-65
2021/04/23 05:56:51;;;;;;;7.83;2.90;;;;;;;8.07;70.38;100414.61;1725588;83;21201;-66
2021/04/23 05:59:18;;;;;;;7.10;3.45;;;;;;;8.09;70.25;100414.76;1665399;86;21250;-67
2021/04/23 06:01:46;;;;;;;5.33;3.17;;;;;;;8.10;70.23;100411.52;1714788;83;21312;-66
2021/04/23 06:04:14;;;;;;;9.03;2.80;;;;;;;8.09;70.07;100412.03;1641428;86;21860;-66
2021/04/23 06:06:42;;;;;;;6.08;2.52;;;;;;;8.16;70.21;100420.34;1641148;86;21476;-66
2021/04/23 06:09:09;;;;;;;7.22;2.80;;;;;;;8.23;69.75;100419.43;1641364;86;21382;-66
2021/04/23 06:11:36;;;;;;;6.97;2.70;;;;;;;8.27;69.46;100419.91;1641240;86;21389;-66
2021/04/23 06:14:04;;;;;;;7.05;2.75;;;;;;;8.31;68.89;100423.98;1641308;86;21416;-65
2021/04/23 06:16:32;;;;;;;6.97;3.00;;;;;;;8.38;68.87;100424.13;1641253;86;21333;-65
2021/04/23 06:18:59;;;;;;;6.37;3.15;;;;;;;8.46;69.02;100427.67;1641218;86;21186;-65
2021/04/23 06:21:27;;;;;;;10.10;3.72;;;;;;;8.52;67.77;100426.09;1640715;86;21766;-65
2021/04/23 06:23:55;;;;;;;8.13;3.05;;;;;;;8.54;67.88;100435.80;1641001;86;21321;-65
2021/04/23 06:26:22;;;;;;;7.30;2.72;;;;;;;8.56;67.43;100436.45;1640901;86;22011;-66
2021/04/23 06:28:51;;;;;;;5.75;3.35;;;;;;;8.64;67.61;100436.05;1641087;86;21892;-65
2021/04/23 06:31:19;;;;;;;6.50;3.30;;;;;;;8.69;66.95;100429.00;1641057;86;21874;-66
2021/04/23 06:33:50;;;;;;;5.00;2.90;;;;;;;8.69;67.21;100433.63;1640608;86;21166;-65
2021/04/23 06:36:19;;;;;;;8.00;2.72;;;;;;;8.69;66.23;100432.25;1641088;87;21229;-65
2021/04/23 06:38:47;;;;;;;6.97;2.98;;;;;;;8.69;66.31;100429.52;1641126;86;21241;-67
2021/04/23 06:41:15;;;;;;;7.08;3.17;;;;;;;8.69;66.44;100427.64;1641193;87;21174;-65
2021/04/23 06:43:43;;;;;;;5.80;2.92;;;;;;;8.74;66.84;100434.77;1641114;86;21381;-65
2021/04/23 06:46:12;;;;;;;7.30;3.30;;;;;;;8.82;65.87;100434.69;1641253;86;21196;-66
2021/04/23 06:48:42;;;;;;;3.92;2.98;;;;;;;8.85;65.85;100433.46;1641204;86;21182;-65
2021/04/23 06:51:10;;;;;;;8.05;3.08;;;;;;;8.93;66.01;100433.90;1641266;86;21197;-65
2021/04/23 06:53:37;;;;;;;6.47;2.55;;;;;;;9.00;65.65;100434.84;1641137;86;21201;-64
2021/04/23 06:56:06;;;;;;;10.65;3.02;;;;;;;9.03;64.45;100436.69;1640972;86;21190;-64
2021/04/23 06:58:33;;;;;;;5.12;2.72;;;;;;;9.03;64.25;100431.23;1641217;86;21185;-65
2021/04/23 07:01:01;;;;;;;6.75;3.33;;;;;;;9.07;64.47;100434.44;1639634;86;21154;-64
2021/04/23 07:03:29;;;;;;;6.87;2.83;;;;;;;9.12;64.88;100442.95;1640609;86;21230;-65
2021/04/23 07:05:58;;;;;;;6.05;2.80;;;;;;;9.17;64.42;100437.25;1699914;84;21425;-64
2021/04/23 07:08:27;;;;;;;5.15;3.27;;;;;;;9.17;63.46;100447.34;1695780;84;21182;-66
2021/04/23 07:10:54;;;;;;;6.08;3.05;;;;;;;9.09;63.29;100434.58;1657454;86;21192;-66
2021/04/23 07:13:21;;;;;;;4.47;2.85;;;;;;;9.13;64.01;100435.93;1655519;86;21413;-65
2021/04/23 07:15:49;;;;;;;6.20;3.15;;;;;;;9.26;64.05;100435.80;1659681;86;21311;-65
2021/04/23 07:18:16;;;;;;;9.53;3.35;;;;;;;9.35;63.70;100442.86;1704312;83;21539;-65
2021/04/23 07:20:44;;;;;;;10.60;3.52;;;;;;;9.42;63.40;100450.64;1705046;84;21189;-65
2021/04/23 07:23:12;;;;;;;9.23;3.50;;;;;;;9.44;63.26;100452.67;1709436;83;21345;-65
2021/04/23 07:25:40;;;;;;;9.28;4.25;;;;;;;9.51;63.21;100456.34;1668808;85;21888;-64
2021/04/23 07:28:08;;;;;;;10.68;3.60;;;;;;;9.56;62.56;100454.41;1671092;85;21910;-65
2021/04/23 07:30:37;;;;;;;8.33;3.47;;;;;;;9.58;62.37;100454.55;1670948;85;21580;-65
2021/04/23 07:33:06;;;;;;;7.12;3.83;;;;;;;9.64;62.59;100457.04;1669654;85;21209;-65
2021/04/23 07:35:34;;;;;;;6.87;3.77;;;;;;;9.66;62.58;100457.18;1669316;85;21874;-65
2021/04/23 07:38:02;;;;;;;7.95;3.98;;;;;;;9.71;62.23;100454.72;1668074;86;21139;-65
2021/04/23 07:40:31;;;;;;;8.85;3.62;;;;;;;9.76;61.81;100452.29;1704098;84;21393;-66
2021/04/23 07:43:00;;;;;;;6.97;2.90;;;;;;;9.80;61.69;100452.23;1708349;84;21186;-65
2021/04/23 07:45:30;;;;;;;11.85;3.58;;;;;;;9.85;61.77;100447.55;1703830;83;21159;-66
2021/04/23 07:47:57;;;;;;;5.62;3.12;;;;;;;9.93;61.40;100446.08;1705262;84;21158;-65
2021/04/23 07:50:27;;;;;;;9.35;3.65;;;;;;;9.99;60.71;100443.09;1660348;86;21202;-65
2021/04/23 07:52:56;;;;;;;6.47;3.75;;;;;;;10.02;60.94;100441.33;1698836;84;22046;-70
2021/04/23 07:55:24;;;;;;;7.90;4.05;;;;;;;10.04;61.20;100434.63;1641181;86;21372;-66
2021/04/23 07:57:53;;;;;;;9.15;3.67;;;;;;;10.10;61.08;100442.06;1700412;84;21776;-66
2021/04/23 08:00:42;;;;;;;7.45;3.85;;;;;;;10.12;60.66;100438.61;1702285;84;21327;-65
2021/04/23 08:03:10;;;;;;;10.48;3.67;;;;;;;10.15;60.36;100444.22;1657324;85;21226;-66
2021/04/23 08:05:38;;;;;;;7.58;3.77;;;;;;;10.15;60.24;100442.84;1670381;84;21487;-67
2021/04/23 08:08:06;;;;;;;9.75;4.47;;;;;;;10.15;59.75;100447.80;1665908;85;21202;-65
2021/04/23 08:10:36;;;;;;;7.40;4.28;;;;;;;10.09;59.64;100444.99;1670978;85;21348;-66
2021/04/23 08:13:04;;;;;;;7.35;3.60;;;;;;;10.08;59.89;100448.77;1637201;85;21912;-68
2021/04/23 08:15:35;;;;;;;10.45;4.00;;;;;;;10.13;60.08;100457.25;1662510;85;22250;-68
2021/04/23 08:18:04;;;;;;;6.60;3.35;;;;;;;10.17;59.70;100450.34;1655525;84;21342;-67
2021/04/23 08:20:32;;;;;;;7.40;3.30;;;;;;;10.21;59.37;100448.10;1673401;84;21266;-67
2021/04/23 08:23:02;;;;;;;8.38;3.33;;;;;;;10.23;59.00;100441.91;1674883;84;21182;-67
2021/04/23 08:25:30;;;;;;;7.62;3.22;;;;;;;10.26;59.00;100443.73;1674553;84;21289;-66
2021/04/23 08:27:58;;;;;;;10.00;4.12;;;;;;;10.32;58.96;100448.95;1646712;85;21238;-67
2021/04/23 08:30:28;;;;;;;9.90;4.10;;;;;;;10.38;59.25;100457.23;1648908;85;22004;-67
2021/04/23 08:32:55;;;;;;;10.23;3.60;;;;;;;10.47;59.33;100446.51;1646907;85;21202;-66
2021/04/23 08:35:24;;;;;;;7.33;3.65;;;;;;;10.61;59.57;100443.89;1671934;84;21351;-67
2021/04/23 08:37:53;;;;;;;7.00;3.65;;;;;;;10.72;59.06;100448.31;1637280;85;21209;-66
2021/04/23 08:40:23;;;;;;;9.53;3.83;;;;;;;10.83;58.65;100459.79;1660944;86;21365;-69
2021/04/23 08:42:52;;;;;;;8.00;4.10;;;;;;;10.89;58.39;100449.41;1679415;82;21196;-68
2021/04/23 08:45:21;;;;;;;7.12;3.98;;;;;;;10.89;57.35;100452.99;1704088;82;21194;-68
2021/04/23 08:47:50;;;;;;;11.80;3.77;;;;;;;10.92;57.70;100455.86;1691788;82;21878;-68
2021/04/23 08:50:20;;;;;;;8.28;4.20;;;;;;;11.03;57.82;100447.09;1670735;85;21277;-66
2021/04/23 08:52:49;;;;;;;9.95;4.70;;;;;;;11.16;57.66;100455.96;1620558;87;21255;-70
2021/04/23 08:55:21;;;;;;;10.35;4.65;;;;;;;11.25;57.38;100451.49;1632998;86;21090;-66
2021/04/23 08:57:51;;;;;;;7.78;3.95;;;;;;;11.26;56.62;100449.59;1658524;85;21044;-68
2021/04/23 09:00:19;;;;;;;8.25;3.92;;;;;;;11.27;56.39;100454.03;1654233;85;21286;-68
2021/04/23 09:02:46;;;;;;;7.47;4.10;;;;;;;11.26;55.96;100444.11;1698670;83;21157;-71
2021/04/23 09:05:16;;;;;;;19.07;10.48;;;;;;;11.29;56.14;100447.30;1695595;84;21113;-69
2021/04/23 09:07:59;;;;;;;10.10;5.53;;;;;;;11.38;57.09;100442.50;1708839;82;21087;-72
2021/04/23 09:10:27;;;;;;;11.33;5.30;;;;;;;11.52;56.95;100433.81;1701191;83;21263;-68
2021/04/23 09:13:10;;;;;;;6.45;3.55;;;;;;;11.64;55.80;100430.81;1714249;83;21056;-68
2021/04/23 09:15:39;;;;;;;7.67;3.60;;;;;;;11.68;55.16;100435.69;1714412;83;21667;-69
2021/04/23 09:18:10;;;;;;;6.92;3.42;;;;;;;11.71;54.25;100433.94;1724111;82;21021;-66
2021/04/23 09:20:41;;;;;;;9.23;4.15;;;;;;;11.74;53.68;100439.03;1718572;82;21083;-68
2021/04/23 09:23:22;;;;;;;7.15;3.40;;;;;;;11.76;52.86;100444.31;1689514;83;21251;-67
2021/04/23 09:25:54;;;;;;;7.47;3.87;;;;;;;11.73;52.52;100448.31;1711553;83;21785;-66
2021/04/23 09:28:38;;;;;;;7.70;3.30;;;;;;;11.75;52.86;100442.09;1709210;83;21339;-68
2021/04/23 09:31:27;;;;;;;6.70;3.62;;;;;;;11.92;53.07;100440.39;1686041;83;21094;-67
2021/04/23 09:34:04;;;;;;;7.70;3.10;;;;;;;12.05;52.43;100443.19;1638688;85;21364;-68
2021/04/23 09:36:38;;;;;;;15.28;3.00;;;;;;;12.20;52.66;100443.86;1685882;84;21085;-71
2021/04/23 09:39:21;;;;;;;7.12;2.62;;;;;;;12.36;50.53;100442.66;1685701;83;21032;-69
2021/04/23 09:42:04;;;;;;;5.08;2.62;;;;;;;12.42;48.52;100444.58;1671231;84;21325;-70
2021/04/23 09:44:37;;;;;;;4.70;2.58;;;;;;;12.43;48.22;100449.02;1709941;84;21067;-70
2021/04/23 09:47:19;;;;;;;7.47;2.58;;;;;;;12.51;47.93;100436.98;1723087;82;21713;-69
2021/04/23 09:49:59;;;;;;;5.53;2.55;;;;;;;12.57;47.98;100441.11;1737288;82;21161;-72
2021/04/23 09:52:27;;;;;;;6.65;2.40;;;;;;;12.58;45.72;100446.92;1739517;82;21035;-75
2021/04/23 09:54:57;;;;;;;6.40;2.25;;;;;;;12.53;45.86;100449.45;1714969;82;21658;-71
2021/04/23 09:57:30;;;;;;;5.53;2.52;;;;;;;12.52;44.73;100446.39;1749578;82;21054;-69
2021/04/23 09:59:59;;;;;;;6.58;2.83;;;;;;;12.56;45.29;100449.03;1757864;81;21097;-72
2021/04/23 10:02:29;;;;;;;7.85;2.70;;;;;;;12.60;44.43;100443.97;1744469;81;21865;-69
2021/04/23 10:05:43;;;;;;;7.00;2.80;;;;;;;12.54;44.62;100425.56;1742594;82;21713;-71
2021/04/23 10:08:13;;;;;;;11.35;3.55;;;;;;;12.48;45.75;100416.78;1727978;81;21102;-69
2021/04/23 10:10:56;;;;;;;5.95;2.40;;;;;;;12.49;45.42;100410.23;1752562;80;21763;-69
2021/04/23 10:13:32;;;;;;;6.62;2.50;;;;;;;12.56;44.68;100409.71;1744737;81;21781;-70
2021/04/23 10:16:00;;;;;;;5.78;2.60;;;;;;;12.68;44.86;100421.77;1744572;81;21376;-69
2021/04/23 10:18:28;;;;;;;7.60;2.60;;;;;;;12.80;44.43;100410.98;1744568;81;21768;-75
2021/04/23 10:20:56;;;;;;;7.00;2.15;;;;;;;12.83;44.06;100412.78;1743167;81;21502;-72
2021/04/23 10:23:24;;;;;;;7.15;2.12;;;;;;;12.86;43.57;100415.10;1766486;80;21080;-69
2021/04/23 10:25:53;;;;;;;4.72;2.20;;;;;;;12.86;42.06;100406.01;1749706;80;21059;-69
2021/04/23 10:28:23;;;;;;;8.95;2.60;;;;;;;12.92;43.27;100401.88;1739550;81;21092;-74
2021/04/23 10:30:53;;;;;;;5.12;2.10;;;;;;;13.16;43.62;100399.02;1740906;81;21058;-72
2021/04/23 10:33:23;;;;;;;5.12;2.20;;;;;;;13.42;41.71;100405.55;1740561;82;21078;-71
2021/04/23 10:35:54;;;;;;;3.67;1.62;;;;;;;13.49;40.35;100407.22;1741501;82;21293;-71
2021/04/23 10:38:29;;;;;;;5.45;1.80;;;;;;;13.52;40.83;100399.05;1743815;82;21067;-70
2021/04/23 10:40:59;;;;;;;6.53;2.00;;;;;;;13.57;40.60;100406.13;1742937;82;21064;-70
2021/04/23 10:43:28;;;;;;;7.05;2.40;;;;;;;13.54;39.63;100396.93;1739414;82;21058;-69
2021/04/23 10:46:11;;;;;;;7.83;2.50;;;;;;;13.46;39.48;100391.13;1744520;81;21245;-69
2021/04/23 10:48:43;;;;;;;7.95;2.80;;;;;;;13.41;40.41;100384.59;1746886;81;21793;-71
2021/04/23 10:51:25;;;;;;;4.17;1.95;;;;;;;13.34;40.52;100385.98;1748576;80;21078;-71
2021/04/23 10:53:56;;;;;;;3.45;1.90;;;;;;;13.28;40.44;100397.33;1743915;81;21185;-73
2021/04/23 10:56:34;;;;;;;3.67;1.87;;;;;;;13.24;40.67;100400.72;1738713;82;21202;-72
2021/04/23 10:59:09;;;;;;;5.20;2.00;;;;;;;13.21;41.28;100394.28;1753153;80;21205;-70
2021/04/23 11:01:39;;;;;;;9.55;2.62;;;;;;;13.21;40.38;100402.53;1739219;80;21249;-69
2021/04/23 11:04:14;;;;;;;4.72;2.02;;;;;;;13.09;40.62;100396.81;1735374;82;21219;-73
2021/04/23 11:06:47;;;;;;;6.15;2.47;;;;;;;12.95;41.23;100397.33;1736257;82;21084;-70
2021/04/23 11:09:17;;;;;;;8.98;3.35;;;;;;;12.91;41.66;100404.84;1731798;82;21089;-65
2021/04/23 11:12:09;;;;;;;15.03;6.33;;;;;;;12.83;41.50;100396.28;1735921;82;21263;-64
2021/04/23 11:14:38;;;;;;;6.40;2.40;;;;;;;12.70;41.92;100414.16;1728608;82;21329;-63
2021/04/23 11:17:20;;;;;;;6.15;2.35;;;;;;;12.54;42.50;100407.70;1726861;81;21301;-68
2021/04/23 11:19:51;;;;;;;6.05;1.77;;;;;;;12.45;42.74;100407.59;1728218;81;21439;-69
2021/04/23 11:22:25;;;;;;;7.05;2.20;;;;;;;12.43;43.44;100406.95;1740922;82;21034;-70
2021/04/23 11:25:16;;;;;;;14.98;4.75;;;;;;;12.40;43.92;100400.50;1737049;81;21782;-70
2021/04/23 11:28:06;;;;;;;6.15;2.90;;;;;;;12.42;44.10;100402.51;1712726;82;21065;-69
2021/04/23 11:31:00;;;;;;;8.75;2.62;;;;;;;12.47;44.51;100410.44;1677774;83;21079;-67
2021/04/23 11:33:54;;;;;;;7.80;2.08;;;;;;;12.54;43.96;100397.55;1679876;84;21903;-67
2021/04/23 11:36:37;;;;;;;2.90;1.90;;;;;;;12.62;43.76;100403.37;1669201;85;21184;-67
2021/04/23 11:39:12;;;;;;;4.95;2.30;;;;;;;12.69;43.42;100389.94;1688887;83;21096;-66
2021/04/23 11:42:06;;;;;;;4.15;1.87;;;;;;;12.75;42.74;100391.00;1683407;84;21029;-66